sensor_id;sensor_type;location;lat;lon;timestamp;temperature;humidity
13684;DHT22;6914;53.552;9.908;2023-04-12T00:01:25;4.10;99.90
13684;DHT22;6914;53.552;9.908;2023-04-12T00:03:52;4.60;99.90
13684;DHT22;6914;53.552;9.908;2023-04-12T00:06:20;4.10;99.90
13684;DHT22;6914;53.552;9.908;2023-04-12T00:08:50;4.00;99.90
13684;DHT22;6914;53.552;9.908;2023-04-12T00:11:16;4.00;99.90
13684;DHT22;6914;53.552;9.908;2023-04-12T00:13:43;4.00;99.90
13684;DHT22;6914;53.552;9.908;2023-04-12T00:16:10;3.90;99.90
13684;DHT22;6914;53.552;9.908;2023-04-12T00:18:40;3.90;99.90
13684;DHT22;6914;53.552;9.908;2023-04-12T00:21:07;3.90;99.90
13684;DHT22;6914;53.552;9.908;2023-04-12T00:23:37;4.00;99.90
13684;DHT22;6914;53.552;9.908;2023-04-12T00:26:05;3.90;99.90
13684;DHT22;6914;53.552;9.908;2023-04-12T00:28:32;3.90;99.90
13684;DHT22;6914;53.552;9.908;2023-04-12T00:30:59;3.90;99.90
13684;DHT22;6914;53.552;9.908;2023-04-12T00:33:26;4.50;99.90
13684;DHT22;6914;53.552;9.908;2023-04-12T00:35:53;3.70;99.90
13684;DHT22;6914;53.552;9.908;2023-04-12T00:38:19;3.80;99.90
13684;DHT22;6914;53.552;9.908;2023-04-12T00:40:48;3.70;99.90
13684;DHT22;6914;53.552;9.908;2023-04-12T00:43:14;3.70;99.90
13684;DHT22;6914;53.552;9.908;2023-04-12T00:45:43;3.70;99.90
13684;DHT22;6914;53.552;9.908;2023-04-12T00:48:10;3.70;99.90
13684;DHT22;6914;53.552;9.908;2023-04-12T00:50:38;3.70;99.90
13684;DHT22;6914;53.552;9.908;2023-04-12T00:53:10;3.90;99.90
13684;DHT22;6914;53.552;9.908;2023-04-12T00:55:38;3.80;99.90
13684;DHT22;6914;53.552;9.908;2023-04-12T00:58:06;3.60;99.90
13684;DHT22;6914;53.552;9.908;2023-04-12T01:00:34;3.50;99.90
13684;DHT22;6914;53.552;9.908;2023-04-12T01:03:03;3.40;99.90
13684;DHT22;6914;53.552;9.908;2023-04-12T01:05:47;3.50;99.90
13684;DHT22;6914;53.552;9.908;2023-04-12T01:08:20;3.50;99.90
13684;DHT22;6914;53.552;9.908;2023-04-12T01:10:55;3.50;99.90
13684;DHT22;6914;53.552;9.908;2023-04-12T01:13:31;3.50;99.90
13684;DHT22;6914;53.552;9.908;2023-04-12T01:16:03;3.50;99.90
13684;DHT22;6914;53.552;9.908;2023-04-12T01:18:35;3.50;99.90
13684;DHT22;6914;53.552;9.908;2023-04-12T01:21:08;3.40;99.90
13684;DHT22;6914;53.552;9.908;2023-04-12T01:24:08;3.40;99.90
13684;DHT22;6914;53.552;9.908;2023-04-12T01:26:42;3.50;99.90
13684;DHT22;6914;53.552;9.908;2023-04-12T01:29:13;3.40;99.90
13684;DHT22;6914;53.552;9.908;2023-04-12T01:31:42;3.40;99.90
13684;DHT22;6914;53.552;9.908;2023-04-12T01:34:11;3.40;99.90
13684;DHT22;6914;53.552;9.908;2023-04-12T01:36:40;3.40;99.90
13684;DHT22;6914;53.552;9.908;2023-04-12T01:39:08;3.40;99.90
13684;DHT22;6914;53.552;9.908;2023-04-12T01:41:39;3.50;99.90
13684;DHT22;6914;53.552;9.908;2023-04-12T01:44:13;3.30;99.90
13684;DHT22;6914;53.552;9.908;2023-04-12T01:46:41;3.40;99.90
13684;DHT22;6914;53.552;9.908;2023-04-12T01:49:08;3.40;99.90
13684;DHT22;6914;53.552;9.908;2023-04-12T01:51:44;3.40;99.90
13684;DHT22;6914;53.552;9.908;2023-04-12T01:54:21;3.30;99.90
13684;DHT22;6914;53.552;9.908;2023-04-12T01:56:55;3.30;99.90
13684;DHT22;6914;53.552;9.908;2023-04-12T01:59:26;3.40;99.90
13684;DHT22;6914;53.552;9.908;2023-04-12T02:01:54;3.30;99.90
13684;DHT22;6914;53.552;9.908;2023-04-12T02:04:21;2.80;99.90
13684;DHT22;6914;53.552;9.908;2023-04-12T02:06:49;3.30;99.90
13684;DHT22;6914;53.552;9.908;2023-04-12T02:09:16;3.30;99.90
13684;DHT22;6914;53.552;9.908;2023-04-12T02:11:45;3.70;99.90
13684;DHT22;6914;53.552;9.908;2023-04-12T02:14:13;3.30;99.90
13684;DHT22;6914;53.552;9.908;2023-04-12T02:16:42;3.30;99.90
13684;DHT22;6914;53.552;9.908;2023-04-12T02:19:10;3.30;99.90
13684;DHT22;6914;53.552;9.908;2023-04-12T02:21:40;3.70;99.90
13684;DHT22;6914;53.552;9.908;2023-04-12T02:24:07;3.30;99.90
13684;DHT22;6914;53.552;9.908;2023-04-12T02:26:35;3.30;99.90
13684;DHT22;6914;53.552;9.908;2023-04-12T02:29:03;3.00;99.90
13684;DHT22;6914;53.552;9.908;2023-04-12T02:31:32;3.20;99.90
13684;DHT22;6914;53.552;9.908;2023-04-12T02:34:01;3.30;99.90
13684;DHT22;6914;53.552;9.908;2023-04-12T02:36:28;3.40;99.90
13684;DHT22;6914;53.552;9.908;2023-04-12T02:38:55;3.20;99.90
13684;DHT22;6914;53.552;9.908;2023-04-12T02:41:23;3.30;99.90
13684;DHT22;6914;53.552;9.908;2023-04-12T02:43:50;3.00;99.90
13684;DHT22;6914;53.552;9.908;2023-04-12T02:46:19;3.20;99.90
13684;DHT22;6914;53.552;9.908;2023-04-12T02:48:46;3.30;99.90
13684;DHT22;6914;53.552;9.908;2023-04-12T02:51:14;3.30;99.90
13684;DHT22;6914;53.552;9.908;2023-04-12T02:53:41;3.20;99.90
13684;DHT22;6914;53.552;9.908;2023-04-12T02:56:09;2.80;99.90
13684;DHT22;6914;53.552;9.908;2023-04-12T02:58:37;3.30;99.90
13684;DHT22;6914;53.552;9.908;2023-04-12T03:01:04;3.50;99.90
13684;DHT22;6914;53.552;9.908;2023-04-12T03:03:32;3.30;99.90
13684;DHT22;6914;53.552;9.908;2023-04-12T03:06:00;3.40;99.90
13684;DHT22;6914;53.552;9.908;2023-04-12T03:08:28;3.50;99.90
13684;DHT22;6914;53.552;9.908;2023-04-12T03:10:55;3.40;99.90
13684;DHT22;6914;53.552;9.908;2023-04-12T03:13:22;3.50;99.90
13684;DHT22;6914;53.552;9.908;2023-04-12T03:15:53;3.50;99.90
13684;DHT22;6914;53.552;9.908;2023-04-12T03:18:20;3.40;99.90
13684;DHT22;6914;53.552;9.908;2023-04-12T03:20:48;3.40;99.90
13684;DHT22;6914;53.552;9.908;2023-04-12T03:23:16;3.30;99.90
13684;DHT22;6914;53.552;9.908;2023-04-12T03:25:44;3.40;99.90
13684;DHT22;6914;53.552;9.908;2023-04-12T03:28:11;3.60;99.90
13684;DHT22;6914;53.552;9.908;2023-04-12T03:30:39;3.40;99.90
13684;DHT22;6914;53.552;9.908;2023-04-12T03:33:06;4.70;99.90
13684;DHT22;6914;53.552;9.908;2023-04-12T03:35:33;3.50;99.90
13684;DHT22;6914;53.552;9.908;2023-04-12T03:38:00;3.40;99.90
13684;DHT22;6914;53.552;9.908;2023-04-12T03:40:26;3.40;99.90
13684;DHT22;6914;53.552;9.908;2023-04-12T03:42:55;3.50;99.90
13684;DHT22;6914;53.552;9.908;2023-04-12T03:45:22;3.90;99.90
13684;DHT22;6914;53.552;9.908;2023-04-12T03:47:48;3.50;99.90
13684;DHT22;6914;53.552;9.908;2023-04-12T03:50:15;3.50;99.90
13684;DHT22;6914;53.552;9.908;2023-04-12T03:52:42;3.90;99.90
13684;DHT22;6914;53.552;9.908;2023-04-12T03:55:09;3.50;99.90
13684;DHT22;6914;53.552;9.908;2023-04-12T03:57:38;3.50;99.90
13684;DHT22;6914;53.552;9.908;2023-04-12T04:00:10;3.70;99.90
13684;DHT22;6914;53.552;9.908;2023-04-12T04:02:37;3.50;99.90
13684;DHT22;6914;53.552;9.908;2023-04-12T04:05:04;3.60;99.90
13684;DHT22;6914;53.552;9.908;2023-04-12T04:07:31;3.60;99.90
13684;DHT22;6914;53.552;9.908;2023-04-12T04:09:58;3.80;99.90
13684;DHT22;6914;53.552;9.908;2023-04-12T04:12:25;3.60;99.90
13684;DHT22;6914;53.552;9.908;2023-04-12T04:14:52;3.50;99.90
13684;DHT22;6914;53.552;9.908;2023-04-12T04:17:20;3.50;99.90
13684;DHT22;6914;53.552;9.908;2023-04-12T04:19:47;3.60;99.90
13684;DHT22;6914;53.552;9.908;2023-04-12T04:22:14;3.60;99.90
13684;DHT22;6914;53.552;9.908;2023-04-12T04:24:43;3.60;99.90
13684;DHT22;6914;53.552;9.908;2023-04-12T04:27:10;3.50;99.90
13684;DHT22;6914;53.552;9.908;2023-04-12T04:29:40;3.10;99.90
13684;DHT22;6914;53.552;9.908;2023-04-12T04:32:09;3.60;99.90
13684;DHT22;6914;53.552;9.908;2023-04-12T04:34:38;3.60;99.90
13684;DHT22;6914;53.552;9.908;2023-04-12T04:37:05;3.60;99.90
13684;DHT22;6914;53.552;9.908;2023-04-12T04:39:32;3.70;99.90
13684;DHT22;6914;53.552;9.908;2023-04-12T04:41:58;3.70;99.90
13684;DHT22;6914;53.552;9.908;2023-04-12T04:44:25;3.70;99.90
13684;DHT22;6914;53.552;9.908;2023-04-12T04:46:52;3.70;99.90
13684;DHT22;6914;53.552;9.908;2023-04-12T04:49:19;3.40;99.90
13684;DHT22;6914;53.552;9.908;2023-04-12T04:51:47;3.70;99.90
13684;DHT22;6914;53.552;9.908;2023-04-12T04:54:14;3.70;99.90
13684;DHT22;6914;53.552;9.908;2023-04-12T04:56:41;3.50;99.90
13684;DHT22;6914;53.552;9.908;2023-04-12T04:59:09;3.80;99.90
13684;DHT22;6914;53.552;9.908;2023-04-12T05:01:36;3.70;99.90
13684;DHT22;6914;53.552;9.908;2023-04-12T05:04:03;3.70;99.90
13684;DHT22;6914;53.552;9.908;2023-04-12T05:06:30;3.80;99.90
13684;DHT22;6914;53.552;9.908;2023-04-12T05:08:59;3.80;99.90
13684;DHT22;6914;53.552;9.908;2023-04-12T05:11:26;3.50;99.90
13684;DHT22;6914;53.552;9.908;2023-04-12T05:13:53;3.70;99.90
13684;DHT22;6914;53.552;9.908;2023-04-12T05:16:19;3.70;99.90
13684;DHT22;6914;53.552;9.908;2023-04-12T05:18:46;3.70;99.90
13684;DHT22;6914;53.552;9.908;2023-04-12T05:21:13;3.70;99.90
13684;DHT22;6914;53.552;9.908;2023-04-12T05:23:42;3.70;99.90
13684;DHT22;6914;53.552;9.908;2023-04-12T05:26:12;3.80;99.90
13684;DHT22;6914;53.552;9.908;2023-04-12T05:28:38;3.90;99.90
13684;DHT22;6914;53.552;9.908;2023-04-12T05:31:30;3.90;99.90
13684;DHT22;6914;53.552;9.908;2023-04-12T05:34:00;3.50;99.90
13684;DHT22;6914;53.552;9.908;2023-04-12T05:36:35;4.10;99.90
13684;DHT22;6914;53.552;9.908;2023-04-12T05:39:06;4.00;99.90
13684;DHT22;6914;53.552;9.908;2023-04-12T05:41:36;4.10;99.90
13684;DHT22;6914;53.552;9.908;2023-04-12T05:44:11;4.20;99.90
13684;DHT22;6914;53.552;9.908;2023-04-12T05:46:46;4.10;99.90
13684;DHT22;6914;53.552;9.908;2023-04-12T05:49:15;3.50;99.90
13684;DHT22;6914;53.552;9.908;2023-04-12T05:51:48;4.60;99.90
13684;DHT22;6914;53.552;9.908;2023-04-12T05:54:29;4.80;99.90
13684;DHT22;6914;53.552;9.908;2023-04-12T05:56:59;2.80;99.90
13684;DHT22;6914;53.552;9.908;2023-04-12T05:59:25;7.00;99.90
13684;DHT22;6914;53.552;9.908;2023-04-12T06:01:52;3.90;99.90
13684;DHT22;6914;53.552;9.908;2023-04-12T06:04:20;4.10;99.90
13684;DHT22;6914;53.552;9.908;2023-04-12T06:06:47;4.20;99.90
13684;DHT22;6914;53.552;9.908;2023-04-12T06:09:14;4.50;99.90
13684;DHT22;6914;53.552;9.908;2023-04-12T06:11:41;4.70;99.90
13684;DHT22;6914;53.552;9.908;2023-04-12T06:14:10;4.30;99.90
13684;DHT22;6914;53.552;9.908;2023-04-12T06:16:37;4.80;99.90
13684;DHT22;6914;53.552;9.908;2023-04-12T06:19:04;4.90;99.90
13684;DHT22;6914;53.552;9.908;2023-04-12T06:21:30;5.00;99.90
13684;DHT22;6914;53.552;9.908;2023-04-12T06:23:57;4.80;99.90
13684;DHT22;6914;53.552;9.908;2023-04-12T06:26:24;5.00;99.90
13684;DHT22;6914;53.552;9.908;2023-04-12T06:28:51;5.20;99.90
13684;DHT22;6914;53.552;9.908;2023-04-12T06:31:19;5.00;99.90
13684;DHT22;6914;53.552;9.908;2023-04-12T06:33:47;5.80;99.90
13684;DHT22;6914;53.552;9.908;2023-04-12T06:36:14;4.50;99.90
13684;DHT22;6914;53.552;9.908;2023-04-12T06:38:41;5.50;99.90
13684;DHT22;6914;53.552;9.908;2023-04-12T06:41:10;5.70;99.90
13684;DHT22;6914;53.552;9.908;2023-04-12T06:43:37;5.40;99.90
13684;DHT22;6914;53.552;9.908;2023-04-12T06:46:04;6.10;99.90
13684;DHT22;6914;53.552;9.908;2023-04-12T06:48:34;6.10;99.90
13684;DHT22;6914;53.552;9.908;2023-04-12T06:51:01;5.80;99.90
13684;DHT22;6914;53.552;9.908;2023-04-12T06:53:30;6.40;99.90
13684;DHT22;6914;53.552;9.908;2023-04-12T06:56:03;6.60;99.90
13684;DHT22;6914;53.552;9.908;2023-04-12T06:58:30;8.30;99.90
13684;DHT22;6914;53.552;9.908;2023-04-12T07:01:04;6.60;99.90
13684;DHT22;6914;53.552;9.908;2023-04-12T07:03:31;7.20;99.90
13684;DHT22;6914;53.552;9.908;2023-04-12T07:05:59;7.10;99.90
13684;DHT22;6914;53.552;9.908;2023-04-12T07:08:27;7.20;99.90
13684;DHT22;6914;53.552;9.908;2023-04-12T07:10:55;7.30;99.90
13684;DHT22;6914;53.552;9.908;2023-04-12T07:13:22;7.50;99.90
13684;DHT22;6914;53.552;9.908;2023-04-12T07:15:49;8.60;99.90
13684;DHT22;6914;53.552;9.908;2023-04-12T07:18:16;7.40;99.90
13684;DHT22;6914;53.552;9.908;2023-04-12T07:20:44;7.40;99.90
13684;DHT22;6914;53.552;9.908;2023-04-12T07:23:16;7.80;99.90
13684;DHT22;6914;53.552;9.908;2023-04-12T07:25:47;7.50;99.90
13684;DHT22;6914;53.552;9.908;2023-04-12T07:28:14;7.50;99.90
13684;DHT22;6914;53.552;9.908;2023-04-12T07:30:41;6.90;99.90
13684;DHT22;6914;53.552;9.908;2023-04-12T07:33:08;7.50;99.90
13684;DHT22;6914;53.552;9.908;2023-04-12T07:35:35;7.80;99.90
13684;DHT22;6914;53.552;9.908;2023-04-12T07:38:01;8.00;99.90
13684;DHT22;6914;53.552;9.908;2023-04-12T07:40:31;7.80;99.90
13684;DHT22;6914;53.552;9.908;2023-04-12T07:42:58;7.90;99.90
13684;DHT22;6914;53.552;9.908;2023-04-12T07:45:25;8.00;99.90
13684;DHT22;6914;53.552;9.908;2023-04-12T07:47:52;8.10;99.90
13684;DHT22;6914;53.552;9.908;2023-04-12T07:50:19;8.30;99.90
13684;DHT22;6914;53.552;9.908;2023-04-12T07:52:48;8.50;99.90
13684;DHT22;6914;53.552;9.908;2023-04-12T07:55:15;8.20;99.90
13684;DHT22;6914;53.552;9.908;2023-04-12T07:57:49;8.00;99.90
13684;DHT22;6914;53.552;9.908;2023-04-12T08:00:19;7.40;99.90
13684;DHT22;6914;53.552;9.908;2023-04-12T08:02:49;8.50;99.90
13684;DHT22;6914;53.552;9.908;2023-04-12T08:05:16;8.20;99.90
13684;DHT22;6914;53.552;9.908;2023-04-12T08:07:42;8.30;99.90
13684;DHT22;6914;53.552;9.908;2023-04-12T08:10:09;8.40;99.90
13684;DHT22;6914;53.552;9.908;2023-04-12T08:12:36;8.30;99.90
13684;DHT22;6914;53.552;9.908;2023-04-12T08:15:05;8.60;99.90
13684;DHT22;6914;53.552;9.908;2023-04-12T08:17:32;8.50;99.90
13684;DHT22;6914;53.552;9.908;2023-04-12T08:19:59;8.40;99.90
13684;DHT22;6914;53.552;9.908;2023-04-12T08:22:26;8.30;99.90
13684;DHT22;6914;53.552;9.908;2023-04-12T08:24:53;8.50;99.90
13684;DHT22;6914;53.552;9.908;2023-04-12T08:27:20;8.40;99.90
13684;DHT22;6914;53.552;9.908;2023-04-12T08:29:49;9.40;99.90
13684;DHT22;6914;53.552;9.908;2023-04-12T08:32:17;8.40;99.90
13684;DHT22;6914;53.552;9.908;2023-04-12T08:34:45;8.40;99.90
13684;DHT22;6914;53.552;9.908;2023-04-12T08:37:14;8.60;99.90
13684;DHT22;6914;53.552;9.908;2023-04-12T08:39:41;7.30;99.90
13684;DHT22;6914;53.552;9.908;2023-04-12T08:42:08;8.50;99.90
13684;DHT22;6914;53.552;9.908;2023-04-12T08:44:37;8.70;99.90
13684;DHT22;6914;53.552;9.908;2023-04-12T08:47:06;8.70;99.90
13684;DHT22;6914;53.552;9.908;2023-04-12T08:49:34;8.60;99.90
13684;DHT22;6914;53.552;9.908;2023-04-12T08:52:03;8.70;99.90
13684;DHT22;6914;53.552;9.908;2023-04-12T08:54:31;9.10;99.90
13684;DHT22;6914;53.552;9.908;2023-04-12T08:56:59;9.00;99.90
13684;DHT22;6914;53.552;9.908;2023-04-12T08:59:27;8.90;99.90
13684;DHT22;6914;53.552;9.908;2023-04-12T09:01:55;9.00;99.90
13684;DHT22;6914;53.552;9.908;2023-04-12T09:04:22;8.90;99.90
13684;DHT22;6914;53.552;9.908;2023-04-12T09:06:50;9.40;99.90
13684;DHT22;6914;53.552;9.908;2023-04-12T09:09:17;9.10;99.90
13684;DHT22;6914;53.552;9.908;2023-04-12T09:11:49;9.20;99.90
13684;DHT22;6914;53.552;9.908;2023-04-12T09:14:20;8.00;99.90
13684;DHT22;6914;53.552;9.908;2023-04-12T09:16:51;9.30;99.90
13684;DHT22;6914;53.552;9.908;2023-04-12T09:19:30;9.40;99.90
13684;DHT22;6914;53.552;9.908;2023-04-12T09:21:58;7.10;99.90
13684;DHT22;6914;53.552;9.908;2023-04-12T09:24:28;11.40;99.90
13684;DHT22;6914;53.552;9.908;2023-04-12T09:27:00;9.90;99.90
13684;DHT22;6914;53.552;9.908;2023-04-12T09:29:28;9.00;99.90
13684;DHT22;6914;53.552;9.908;2023-04-12T09:31:59;9.60;99.90
13684;DHT22;6914;53.552;9.908;2023-04-12T09:34:26;9.80;99.90
13684;DHT22;6914;53.552;9.908;2023-04-12T09:36:53;9.50;99.90
13684;DHT22;6914;53.552;9.908;2023-04-12T09:39:30;9.80;99.90
13684;DHT22;6914;53.552;9.908;2023-04-12T09:42:06;9.60;99.90
13684;DHT22;6914;53.552;9.908;2023-04-12T09:44:33;9.70;99.90
13684;DHT22;6914;53.552;9.908;2023-04-12T09:47:03;10.10;99.90
13684;DHT22;6914;53.552;9.908;2023-04-12T09:49:37;9.50;99.90
13684;DHT22;6914;53.552;9.908;2023-04-12T09:52:06;9.40;99.90
13684;DHT22;6914;53.552;9.908;2023-04-12T09:54:42;10.10;99.90
13684;DHT22;6914;53.552;9.908;2023-04-12T09:57:09;9.90;99.90
13684;DHT22;6914;53.552;9.908;2023-04-12T09:59:39;9.50;99.90
13684;DHT22;6914;53.552;9.908;2023-04-12T10:02:10;9.80;99.90
13684;DHT22;6914;53.552;9.908;2023-04-12T10:04:39;9.60;99.90
13684;DHT22;6914;53.552;9.908;2023-04-12T10:07:07;9.90;99.90
13684;DHT22;6914;53.552;9.908;2023-04-12T10:09:36;9.80;99.90
13684;DHT22;6914;53.552;9.908;2023-04-12T10:12:05;10.80;99.90
13684;DHT22;6914;53.552;9.908;2023-04-12T10:14:32;10.20;99.90
13684;DHT22;6914;53.552;9.908;2023-04-12T10:17:02;9.70;99.90
13684;DHT22;6914;53.552;9.908;2023-04-12T10:19:30;10.00;99.90
13684;DHT22;6914;53.552;9.908;2023-04-12T10:21:58;9.80;99.90
13684;DHT22;6914;53.552;9.908;2023-04-12T10:24:27;10.00;99.90
13684;DHT22;6914;53.552;9.908;2023-04-12T10:26:55;10.90;99.90
13684;DHT22;6914;53.552;9.908;2023-04-12T10:29:28;11.50;99.90
13684;DHT22;6914;53.552;9.908;2023-04-12T10:31:56;9.80;99.90
13684;DHT22;6914;53.552;9.908;2023-04-12T10:34:26;10.10;99.90
13684;DHT22;6914;53.552;9.908;2023-04-12T10:36:54;10.20;99.90
13684;DHT22;6914;53.552;9.908;2023-04-12T10:39:39;9.90;99.90
13684;DHT22;6914;53.552;9.908;2023-04-12T10:42:18;9.80;99.90
13684;DHT22;6914;53.552;9.908;2023-04-12T10:44:50;9.70;99.90
13684;DHT22;6914;53.552;9.908;2023-04-12T10:50:22;9.50;99.90
13684;DHT22;6914;53.552;9.908;2023-04-12T10:53:21;9.20;99.90
13684;DHT22;6914;53.552;9.908;2023-04-12T10:55:50;9.10;99.90
13684;DHT22;6914;53.552;9.908;2023-04-12T10:58:55;8.80;99.90
13684;DHT22;6914;53.552;9.908;2023-04-12T11:01:24;8.90;99.90
13684;DHT22;6914;53.552;9.908;2023-04-12T11:04:16;8.80;99.90
13684;DHT22;6914;53.552;9.908;2023-04-12T11:06:58;8.70;99.90
13684;DHT22;6914;53.552;9.908;2023-04-12T11:09:28;9.00;99.90
13684;DHT22;6914;53.552;9.908;2023-04-12T11:12:10;8.60;99.90
13684;DHT22;6914;53.552;9.908;2023-04-12T11:14:43;8.40;99.90
13684;DHT22;6914;53.552;9.908;2023-04-12T11:17:27;8.30;99.90
13684;DHT22;6914;53.552;9.908;2023-04-12T11:19:58;8.80;99.90
13684;DHT22;6914;53.552;9.908;2023-04-12T11:22:27;8.30;99.90
13684;DHT22;6914;53.552;9.908;2023-04-12T11:24:56;8.40;99.90
13684;DHT22;6914;53.552;9.908;2023-04-12T11:27:25;8.20;99.90
13684;DHT22;6914;53.552;9.908;2023-04-12T11:29:54;8.10;99.90
13684;DHT22;6914;53.552;9.908;2023-04-12T11:32:27;8.00;99.90
13684;DHT22;6914;53.552;9.908;2023-04-12T11:35:02;8.00;99.90
13684;DHT22;6914;53.552;9.908;2023-04-12T11:37:30;8.00;99.90
13684;DHT22;6914;53.552;9.908;2023-04-12T11:39:57;7.80;99.90
13684;DHT22;6914;53.552;9.908;2023-04-12T11:42:25;7.90;99.90
13684;DHT22;6914;53.552;9.908;2023-04-12T11:44:54;7.90;99.90
13684;DHT22;6914;53.552;9.908;2023-04-12T11:47:23;7.70;99.90
13684;DHT22;6914;53.552;9.908;2023-04-12T11:49:55;7.70;99.90
13684;DHT22;6914;53.552;9.908;2023-04-12T11:52:27;7.50;99.90
13684;DHT22;6914;53.552;9.908;2023-04-12T11:54:54;7.60;99.90
13684;DHT22;6914;53.552;9.908;2023-04-12T11:57:26;7.70;99.90
13684;DHT22;6914;53.552;9.908;2023-04-12T11:59:56;7.00;99.90
13684;DHT22;6914;53.552;9.908;2023-04-12T12:02:26;7.60;99.90
13684;DHT22;6914;53.552;9.908;2023-04-12T12:04:55;7.50;99.90
13684;DHT22;6914;53.552;9.908;2023-04-12T12:07:22;7.70;99.90
13684;DHT22;6914;53.552;9.908;2023-04-12T12:09:56;7.70;99.90
13684;DHT22;6914;53.552;9.908;2023-04-12T12:12:26;7.70;99.90
13684;DHT22;6914;53.552;9.908;2023-04-12T12:14:58;7.70;99.90
13684;DHT22;6914;53.552;9.908;2023-04-12T12:17:28;7.80;99.90
13684;DHT22;6914;53.552;9.908;2023-04-12T12:19:58;7.80;99.90
13684;DHT22;6914;53.552;9.908;2023-04-12T12:22:25;7.90;99.90
13684;DHT22;6914;53.552;9.908;2023-04-12T12:24:55;8.30;99.90
13684;DHT22;6914;53.552;9.908;2023-04-12T12:27:36;7.80;99.90
13684;DHT22;6914;53.552;9.908;2023-04-12T12:30:07;7.70;99.90
13684;DHT22;6914;53.552;9.908;2023-04-12T12:32:35;7.70;99.90
13684;DHT22;6914;53.552;9.908;2023-04-12T12:35:07;7.70;99.90
13684;DHT22;6914;53.552;9.908;2023-04-12T12:37:35;7.70;99.90
13684;DHT22;6914;53.552;9.908;2023-04-12T12:40:03;7.80;99.90
13684;DHT22;6914;53.552;9.908;2023-04-12T12:42:53;7.80;99.90
13684;DHT22;6914;53.552;9.908;2023-04-12T12:45:22;7.80;99.90
13684;DHT22;6914;53.552;9.908;2023-04-12T12:47:58;7.30;99.90
13684;DHT22;6914;53.552;9.908;2023-04-12T12:50:27;7.10;99.90
13684;DHT22;6914;53.552;9.908;2023-04-12T12:53:02;7.80;99.90
13684;DHT22;6914;53.552;9.908;2023-04-12T12:55:31;7.80;99.90
13684;DHT22;6914;53.552;9.908;2023-04-12T12:57:58;7.50;99.90
13684;DHT22;6914;53.552;9.908;2023-04-12T13:00:27;7.80;99.90
13684;DHT22;6914;53.552;9.908;2023-04-12T13:02:54;7.90;99.90
13684;DHT22;6914;53.552;9.908;2023-04-12T13:05:21;8.10;99.90
13684;DHT22;6914;53.552;9.908;2023-04-12T13:07:52;8.10;99.90
13684;DHT22;6914;53.552;9.908;2023-04-12T13:10:19;7.80;99.90
13684;DHT22;6914;53.552;9.908;2023-04-12T13:12:55;8.10;99.90
13684;DHT22;6914;53.552;9.908;2023-04-12T13:15:23;8.10;99.90
13684;DHT22;6914;53.552;9.908;2023-04-12T13:17:54;8.00;99.90
13684;DHT22;6914;53.552;9.908;2023-04-12T13:20:22;7.90;99.90
13684;DHT22;6914;53.552;9.908;2023-04-12T13:22:52;7.80;99.90
13684;DHT22;6914;53.552;9.908;2023-04-12T13:25:20;7.80;99.90
13684;DHT22;6914;53.552;9.908;2023-04-12T13:27:51;7.90;99.90
13684;DHT22;6914;53.552;9.908;2023-04-12T13:30:18;8.10;99.90
13684;DHT22;6914;53.552;9.908;2023-04-12T13:32:47;8.00;99.90
13684;DHT22;6914;53.552;9.908;2023-04-12T13:35:17;8.10;99.90
13684;DHT22;6914;53.552;9.908;2023-04-12T13:37:44;8.10;99.90
13684;DHT22;6914;53.552;9.908;2023-04-12T13:40:13;8.10;99.90
13684;DHT22;6914;53.552;9.908;2023-04-12T13:42:40;8.10;99.90
13684;DHT22;6914;53.552;9.908;2023-04-12T13:45:08;8.00;99.90
13684;DHT22;6914;53.552;9.908;2023-04-12T13:47:37;8.20;99.90
13684;DHT22;6914;53.552;9.908;2023-04-12T13:50:05;7.90;99.90
13684;DHT22;6914;53.552;9.908;2023-04-12T13:52:32;8.00;99.90
13684;DHT22;6914;53.552;9.908;2023-04-12T13:55:00;8.10;99.90
13684;DHT22;6914;53.552;9.908;2023-04-12T13:57:30;8.20;99.90
13684;DHT22;6914;53.552;9.908;2023-04-12T13:59:57;10.10;99.90
13684;DHT22;6914;53.552;9.908;2023-04-12T14:02:24;8.30;99.90
13684;DHT22;6914;53.552;9.908;2023-04-12T14:04:54;8.20;99.90
13684;DHT22;6914;53.552;9.908;2023-04-12T14:07:23;8.10;99.90
13684;DHT22;6914;53.552;9.908;2023-04-12T14:09:52;8.30;99.90
13684;DHT22;6914;53.552;9.908;2023-04-12T14:12:20;8.40;99.90
13684;DHT22;6914;53.552;9.908;2023-04-12T14:14:52;8.40;99.90
13684;DHT22;6914;53.552;9.908;2023-04-12T14:17:21;8.20;99.90
13684;DHT22;6914;53.552;9.908;2023-04-12T14:19:54;8.30;99.90
13684;DHT22;6914;53.552;9.908;2023-04-12T14:22:21;9.40;99.90
13684;DHT22;6914;53.552;9.908;2023-04-12T14:24:49;8.20;99.90
13684;DHT22;6914;53.552;9.908;2023-04-12T14:27:17;8.40;99.90
13684;DHT22;6914;53.552;9.908;2023-04-12T14:29:44;8.30;99.90
13684;DHT22;6914;53.552;9.908;2023-04-12T14:32:13;8.30;99.90
13684;DHT22;6914;53.552;9.908;2023-04-12T14:34:40;8.30;99.90
13684;DHT22;6914;53.552;9.908;2023-04-12T14:37:09;8.40;99.90
13684;DHT22;6914;53.552;9.908;2023-04-12T14:39:38;8.50;99.90
13684;DHT22;6914;53.552;9.908;2023-04-12T14:42:05;8.30;99.90
13684;DHT22;6914;53.552;9.908;2023-04-12T14:44:32;8.70;99.90
13684;DHT22;6914;53.552;9.908;2023-04-12T14:46:59;8.60;99.90
13684;DHT22;6914;53.552;9.908;2023-04-12T14:49:27;8.60;99.90
13684;DHT22;6914;53.552;9.908;2023-04-12T14:51:56;8.70;99.90
13684;DHT22;6914;53.552;9.908;2023-04-12T14:54:24;8.80;99.90
13684;DHT22;6914;53.552;9.908;2023-04-12T14:56:52;8.80;99.90
13684;DHT22;6914;53.552;9.908;2023-04-12T14:59:19;7.70;99.90
13684;DHT22;6914;53.552;9.908;2023-04-12T15:01:46;8.70;99.90
13684;DHT22;6914;53.552;9.908;2023-04-12T15:04:24;8.60;99.90
13684;DHT22;6914;53.552;9.908;2023-04-12T15:06:53;8.80;99.90
13684;DHT22;6914;53.552;9.908;2023-04-12T15:09:21;9.00;99.90
13684;DHT22;6914;53.552;9.908;2023-04-12T15:12:02;8.60;99.90
13684;DHT22;6914;53.552;9.908;2023-04-12T15:14:32;9.10;99.90
13684;DHT22;6914;53.552;9.908;2023-04-12T15:17:05;8.70;99.90
13684;DHT22;6914;53.552;9.908;2023-04-12T15:19:37;8.60;99.90
13684;DHT22;6914;53.552;9.908;2023-04-12T15:22:06;8.60;99.90
13684;DHT22;6914;53.552;9.908;2023-04-12T15:24:33;8.50;99.90
13684;DHT22;6914;53.552;9.908;2023-04-12T15:26:59;9.90;99.90
13684;DHT22;6914;53.552;9.908;2023-04-12T15:29:26;8.60;99.90
13684;DHT22;6914;53.552;9.908;2023-04-12T15:31:53;8.60;99.90
13684;DHT22;6914;53.552;9.908;2023-04-12T15:34:21;8.60;99.90
13684;DHT22;6914;53.552;9.908;2023-04-12T15:36:55;8.60;99.90
13684;DHT22;6914;53.552;9.908;2023-04-12T15:39:27;8.60;99.90
13684;DHT22;6914;53.552;9.908;2023-04-12T15:41:54;8.60;99.90
13684;DHT22;6914;53.552;9.908;2023-04-12T15:44:22;8.60;99.90
13684;DHT22;6914;53.552;9.908;2023-04-12T15:46:54;8.70;99.90
13684;DHT22;6914;53.552;9.908;2023-04-12T15:49:21;8.60;99.90
13684;DHT22;6914;53.552;9.908;2023-04-12T15:51:50;8.60;99.90
13684;DHT22;6914;53.552;9.908;2023-04-12T15:54:21;8.60;99.90
13684;DHT22;6914;53.552;9.908;2023-04-12T15:56:50;8.60;99.90
13684;DHT22;6914;53.552;9.908;2023-04-12T15:59:18;8.80;99.90
13684;DHT22;6914;53.552;9.908;2023-04-12T16:01:45;8.70;99.90
13684;DHT22;6914;53.552;9.908;2023-04-12T16:04:14;8.70;99.90
13684;DHT22;6914;53.552;9.908;2023-04-12T16:06:42;8.50;99.90
13684;DHT22;6914;53.552;9.908;2023-04-12T16:09:10;8.50;99.90
13684;DHT22;6914;53.552;9.908;2023-04-12T16:11:37;10.20;99.90
13684;DHT22;6914;53.552;9.908;2023-04-12T16:14:06;8.60;99.90
13684;DHT22;6914;53.552;9.908;2023-04-12T16:16:33;8.70;99.90
13684;DHT22;6914;53.552;9.908;2023-04-12T16:19:01;8.50;99.90